Time;durP1;ratioP1;P1;durP2;ratioP2;P2;SDS_P1;SDS_P2;PMS_P1;PMS_P2;Temp;Humidity;BMP_temperature;BMP_pressure;BME280_temperature;BME280_humidity;BME280_pressure;Samples;Min_cycle;Max_cycle;Signal;HPM_P1;HPM_P2
2023/07/03 00:02:24;;;;;;;19.87;11.37;;;21.40;80.10;;;;;;5016813;28;20447;-66
2023/07/03 00:04:50;;;;;;;20.77;12.30;;;21.30;79.90;;;;;;5026225;28;20242;-66
2023/07/03 00:07:15;;;;;;;16.40;11.13;;;21.40;80.20;;;;;;5024892;28;20779;-66
2023/07/03 00:09:42;;;;;;;23.63;12.30;;;21.40;80.10;;;;;;5018505;28;20601;-66
2023/07/03 00:12:09;;;;;;;18.93;11.30;;;21.30;80.30;;;;;;5015642;28;20255;-66
2023/07/03 00:14:34;;;;;;;16.40;10.63;;;21.30;80.30;;;;;;5022631;28;20435;-66
2023/07/03 00:17:00;;;;;;;23.50;12.50;;;21.40;80.30;;;;;;5019098;28;20435;-66
2023/07/03 00:19:30;;;;;;;18.87;11.17;;;21.40;80.50;;;;;;5023312;28;20208;-66
2023/07/03 00:21:59;;;;;;;19.07;10.70;;;21.30;80.70;;;;;;5019359;28;20249;-66
2023/07/03 00:24:24;;;;;;;19.00;12.63;;;21.40;80.60;;;;;;5014101;28;20532;-66
2023/07/03 00:26:50;;;;;;;21.23;11.20;;;21.50;80.50;;;;;;5022673;28;20540;-66
2023/07/03 00:29:15;;;;;;;19.37;12.20;;;21.40;80.50;;;;;;5013404;28;20762;-66
2023/07/03 00:31:41;;;;;;;20.87;13.57;;;21.30;80.80;;;;;;5024404;28;20227;-66
2023/07/03 00:34:06;;;;;;;20.37;11.73;;;21.40;80.90;;;;;;5017980;28;20231;-66
2023/07/03 00:36:32;;;;;;;18.67;12.50;;;21.30;81.20;;;;;;5023714;28;20181;-66
2023/07/03 00:38:59;;;;;;;19.17;11.33;;;21.30;81.50;;;;;;5018998;28;20200;-66
2023/07/03 00:41:26;;;;;;;17.57;11.60;;;21.30;81.40;;;;;;5019605;28;20181;-66
2023/07/03 00:43:53;;;;;;;16.37;10.33;;;21.40;81.30;;;;;;5022935;28;20443;-66
2023/07/03 00:46:18;;;;;;;19.50;10.80;;;21.40;81.40;;;;;;5020243;28;20500;-66
2023/07/03 00:48:45;;;;;;;21.07;12.37;;;21.50;81.60;;;;;;5019695;28;20462;-66
2023/07/03 00:51:12;;;;;;;26.33;12.57;;;21.40;82.10;;;;;;5018988;28;20200;-66
2023/07/03 00:53:38;;;;;;;19.33;11.10;;;21.30;83.00;;;;;;5020966;28;20506;-66
2023/07/03 00:56:04;;;;;;;17.70;11.77;;;21.30;83.70;;;;;;5016541;28;20492;-66
2023/07/03 00:58:30;;;;;;;19.00;11.60;;;21.30;84.30;;;;;;5023714;28;20212;-66
2023/07/03 01:01:16;;;;;;;16.87;10.63;;;21.30;84.60;;;;;;5022529;28;20419;-66
2023/07/03 01:03:57;;;;;;;14.00;10.27;;;21.30;85.00;;;;;;5019484;28;20184;-66
2023/07/03 01:06:28;;;;;;;22.07;10.37;;;21.40;85.20;;;;;;5023612;28;20466;-66
2023/07/03 01:08:58;;;;;;;21.50;12.87;;;21.30;85.00;;;;;;5021825;28;20948;-66
2023/07/03 01:11:23;;;;;;;18.20;11.67;;;21.30;85.40;;;;;;5021146;28;20519;-66
2023/07/03 01:13:53;;;;;;;18.93;11.40;;;21.20;85.50;;;;;;5022914;28;21011;-66
2023/07/03 01:16:20;;;;;;;22.30;12.50;;;21.10;86.20;;;;;;5020945;28;20207;-66
2023/07/03 01:18:48;;;;;;;18.90;11.37;;;21.20;86.60;;;;;;5027896;28;20660;-66
2023/07/03 01:21:31;;;;;;;22.17;11.30;;;21.20;86.90;;;;;;5020876;28;20956;-66
2023/07/03 01:24:10;;;;;;;16.27;11.50;;;21.10;86.80;;;;;;5015190;28;20422;-66
2023/07/03 01:26:38;;;;;;;18.80;11.47;;;21.10;87.20;;;;;;5018718;28;20534;-66
2023/07/03 01:29:06;;;;;;;16.87;12.67;;;21.10;87.20;;;;;;5022543;28;20481;-66
2023/07/03 01:31:33;;;;;;;19.93;11.83;;;21.10;87.30;;;;;;5015873;28;20446;-66
2023/07/03 01:34:00;;;;;;;14.63;11.07;;;21.10;87.00;;;;;;5017091;28;20520;-66
2023/07/03 01:36:27;;;;;;;18.90;10.70;;;21.20;86.90;;;;;;5014373;28;20455;-66
2023/07/03 01:38:54;;;;;;;17.97;11.33;;;21.20;87.00;;;;;;5016649;28;20482;-66
2023/07/03 01:41:19;;;;;;;18.47;11.33;;;21.10;87.10;;;;;;5021780;28;20439;-66
2023/07/03 01:43:46;;;;;;;18.83;11.40;;;21.20;87.50;;;;;;5016525;28;20466;-66
2023/07/03 01:46:12;;;;;;;15.67;10.63;;;21.20;87.20;;;;;;5018090;28;20247;-66
2023/07/03 01:48:37;;;;;;;17.50;11.20;;;21.20;87.20;;;;;;5022749;28;20460;-66
2023/07/03 01:51:09;;;;;;;18.37;12.03;;;21.30;87.40;;;;;;5015022;28;20449;-66
2023/07/03 01:53:50;;;;;;;21.43;11.30;;;21.30;87.20;;;;;;5014550;28;20254;-66
2023/07/03 01:56:24;;;;;;;17.17;11.70;;;21.30;87.70;;;;;;5014040;28;20443;-66
2023/07/03 01:58:53;;;;;;;22.87;12.50;;;21.30;87.30;;;;;;5021017;28;21164;-66
2023/07/03 02:01:33;;;;;;;18.90;11.23;;;21.30;87.60;;;;;;5017440;28;20431;-66
2023/07/03 02:04:11;;;;;;;18.60;11.13;;;21.30;87.80;;;;;;5020059;28;20530;-66
2023/07/03 02:06:40;;;;;;;19.47;11.10;;;21.20;88.00;;;;;;5015837;28;20430;-67
2023/07/03 02:09:07;;;;;;;15.90;10.93;;;21.30;88.00;;;;;;5022714;28;20495;-66
2023/07/03 02:11:34;;;;;;;16.63;10.70;;;21.30;87.80;;;;;;5014372;28;20451;-67
2023/07/03 02:14:00;;;;;;;19.60;12.00;;;21.30;87.80;;;;;;5016760;28;20998;-67
2023/07/03 02:16:29;;;;;;;15.23;10.20;;;21.30;87.60;;;;;;5019050;28;20529;-67
2023/07/03 02:18:55;;;;;;;18.30;11.30;;;21.30;88.50;;;;;;5019679;28;20451;-66
2023/07/03 02:21:21;;;;;;;15.73;10.80;;;21.20;88.20;;;;;;5019546;28;20435;-66
2023/07/03 02:23:47;;;;;;;20.03;10.77;;;21.20;88.50;;;;;;5017225;28;20439;-67
2023/07/03 02:26:14;;;;;;;20.30;11.30;;;21.20;88.80;;;;;;5018294;28;20193;-66
2023/07/03 02:28:39;;;;;;;21.67;10.97;;;21.10;89.00;;;;;;5020933;28;20544;-66
2023/07/03 02:31:05;;;;;;;22.33;11.30;;;21.20;89.40;;;;;;5015719;28;20917;-66
2023/07/03 02:33:32;;;;;;;16.20;9.80;;;21.20;89.60;;;;;;5017109;28;20231;-66
2023/07/03 02:36:00;;;;;;;15.83;11.80;;;21.10;90.20;;;;;;5020773;28;20182;-67
2023/07/03 02:38:26;;;;;;;19.90;11.43;;;21.10;90.30;;;;;;5015312;28;20528;-66
2023/07/03 02:40:51;;;;;;;19.93;10.73;;;21.10;90.40;;;;;;5018730;28;20427;-66
2023/07/03 02:43:17;;;;;;;15.93;11.27;;;21.10;90.60;;;;;;5016112;28;20192;-66
2023/07/03 02:45:42;;;;;;;15.80;10.17;;;21.10;90.40;;;;;;5019826;28;20184;-66
2023/07/03 02:48:10;;;;;;;21.73;11.17;;;21.10;90.60;;;;;;5020036;28;20210;-66
2023/07/03 02:50:35;;;;;;;20.80;11.40;;;21.10;90.60;;;;;;5009749;28;20237;-66
2023/07/03 02:53:01;;;;;;;16.03;11.27;;;21.20;90.60;;;;;;5017895;28;21011;-66
2023/07/03 02:55:27;;;;;;;16.30;11.07;;;21.10;90.60;;;;;;5014530;28;20192;-66
2023/07/03 02:57:57;;;;;;;15.60;10.57;;;21.10;90.60;;;;;;5013239;28;20267;-66
2023/07/03 03:00:23;;;;;;;17.87;11.43;;;21.10;90.80;;;;;;5010781;28;20427;-66
2023/07/03 03:02:49;;;;;;;15.70;10.57;;;21.10;90.90;;;;;;5016634;28;20513;-67
2023/07/03 03:05:15;;;;;;;17.93;12.23;;;21.10;91.10;;;;;;5016556;28;20924;-67
2023/07/03 03:07:41;;;;;;;17.60;11.07;;;21.10;91.20;;;;;;5012416;28;20251;-67
2023/07/03 03:10:07;;;;;;;18.80;11.97;;;21.10;91.40;;;;;;5019056;28;20435;-67
2023/07/03 03:12:33;;;;;;;18.00;11.50;;;21.10;91.40;;;;;;5011996;28;20220;-66
2023/07/03 03:14:58;;;;;;;18.00;10.77;;;21.10;91.60;;;;;;5019745;28;20438;-66
2023/07/03 03:17:24;;;;;;;20.60;11.70;;;21.00;91.80;;;;;;5011832;28;20254;-67
2023/07/03 03:19:50;;;;;;;19.37;10.80;;;21.00;91.90;;;;;;5019226;28;20208;-67
2023/07/03 03:22:15;;;;;;;20.63;11.27;;;21.00;92.10;;;;;;5017541;28;20193;-67
2023/07/03 03:24:41;;;;;;;18.67;12.50;;;21.00;92.20;;;;;;5020025;28;20246;-67
2023/07/03 03:27:07;;;;;;;22.33;11.93;;;21.00;92.30;;;;;;5011223;28;20195;-67
2023/07/03 03:29:33;;;;;;;20.90;11.53;;;21.00;92.40;;;;;;5014079;28;20208;-67
2023/07/03 03:31:59;;;;;;;19.40;12.30;;;21.00;92.60;;;;;;5019031;28;20215;-67
2023/07/03 03:34:25;;;;;;;18.20;11.50;;;21.00;92.70;;;;;;5023520;28;20438;-67
2023/07/03 03:36:51;;;;;;;15.23;11.10;;;20.90;92.90;;;;;;5021412;28;20443;-67
2023/07/03 03:39:16;;;;;;;21.30;11.47;;;20.90;93.10;;;;;;5020631;28;20204;-66
2023/07/03 03:41:42;;;;;;;22.20;11.60;;;21.00;93.40;;;;;;5017790;28;20185;-66
2023/07/03 03:44:08;;;;;;;21.00;12.50;;;21.00;93.30;;;;;;5025538;28;20177;-66
2023/07/03 03:46:34;;;;;;;22.97;11.20;;;21.10;93.50;;;;;;5026229;28;20337;-66
2023/07/03 03:49:00;;;;;;;21.40;10.93;;;21.10;93.60;;;;;;5022999;28;20235;-66
2023/07/03 03:51:26;;;;;;;17.43;11.87;;;21.00;93.70;;;;;;5023908;28;20876;-66
2023/07/03 03:53:51;;;;;;;18.80;11.87;;;20.90;94.00;;;;;;5023005;28;20561;-67
2023/07/03 03:56:19;;;;;;;21.77;13.17;;;21.00;94.20;;;;;;5016512;28;20184;-67
2023/07/03 03:58:45;;;;;;;16.73;10.40;;;20.80;94.50;;;;;;5022243;28;20301;-67
2023/07/03 04:01:10;;;;;;;26.17;12.10;;;20.80;94.80;;;;;;5023195;28;20851;-66
2023/07/03 04:03:36;;;;;;;20.33;11.70;;;20.70;94.90;;;;;;5017934;28;20454;-66
2023/07/03 04:06:02;;;;;;;17.33;10.50;;;20.80;95.20;;;;;;5019539;28;20193;-66
2023/07/03 04:08:27;;;;;;;17.57;11.00;;;20.70;95.50;;;;;;5021656;28;20208;-66
2023/07/03 04:10:53;;;;;;;17.80;10.90;;;20.70;95.70;;;;;;5023517;28;20197;-66
2023/07/03 04:13:18;;;;;;;15.83;10.50;;;20.70;95.90;;;;;;5025615;28;20282;-66
2023/07/03 04:15:57;;;;;;;17.37;10.67;;;20.70;95.90;;;;;;5021440;28;20180;-66
2023/07/03 04:18:24;;;;;;;19.93;10.47;;;20.60;96.10;;;;;;5022540;28;20200;-67
2023/07/03 04:20:49;;;;;;;20.30;11.10;;;20.60;96.20;;;;;;5025926;28;20822;-67
2023/07/03 04:23:16;;;;;;;19.63;11.47;;;20.60;96.40;;;;;;5022458;28;20455;-66
2023/07/03 04:25:42;;;;;;;23.10;11.20;;;20.60;96.40;;;;;;5019255;28;20399;-67
2023/07/03 04:28:09;;;;;;;20.03;10.77;;;20.60;96.50;;;;;;5018229;28;21028;-67
2023/07/03 04:30:35;;;;;;;18.40;11.27;;;20.70;96.50;;;;;;5016288;28;20439;-67
2023/07/03 04:33:00;;;;;;;15.80;10.63;;;20.60;96.60;;;;;;5016846;28;20969;-67
2023/07/03 04:35:26;;;;;;;17.27;10.33;;;20.40;96.60;;;;;;5019843;28;20274;-66
2023/07/03 04:37:51;;;;;;;20.40;10.93;;;20.40;96.80;;;;;;5025066;28;20264;-66
2023/07/03 04:40:18;;;;;;;17.43;10.63;;;20.50;96.50;;;;;;5015553;28;20185;-66
2023/07/03 04:42:43;;;;;;;15.73;11.50;;;20.50;96.40;;;;;;5020158;28;20815;-66
2023/07/03 04:45:10;;;;;;;16.73;9.60;;;20.50;96.30;;;;;;5019958;28;20451;-67
2023/07/03 04:47:38;;;;;;;15.93;10.67;;;20.50;96.50;;;;;;5019962;28;20445;-67
2023/07/03 04:50:15;;;;;;;13.00;9.40;;;20.60;96.70;;;;;;5020436;28;20450;-67
2023/07/03 04:52:42;;;;;;;14.37;9.73;;;20.60;96.30;;;;;;5023175;28;20462;-67
2023/07/03 04:55:08;;;;;;;17.60;9.73;;;20.60;96.30;;;;;;5019496;28;21058;-66
2023/07/03 04:57:38;;;;;;;16.47;10.53;;;20.70;95.90;;;;;;5017057;28;20461;-66
2023/07/03 05:00:16;;;;;;;18.30;9.80;;;20.60;96.20;;;;;;5016938;28;20443;-66
2023/07/03 05:02:51;;;;;;;15.83;9.83;;;20.60;96.20;;;;;;5021270;28;20449;-67
2023/07/03 05:05:18;;;;;;;15.10;10.23;;;20.70;96.20;;;;;;5016682;28;21108;-67
2023/07/03 05:07:44;;;;;;;15.07;9.87;;;20.60;96.10;;;;;;5017664;28;21191;-67
2023/07/03 05:10:12;;;;;;;14.17;10.00;;;20.80;96.10;;;;;;5021314;28;20504;-67
2023/07/03 05:12:38;;;;;;;17.03;11.63;;;20.60;96.10;;;;;;5024750;28;20481;-67
2023/07/03 05:15:07;;;;;;;15.57;10.70;;;20.70;96.20;;;;;;5016619;28;20431;-66
2023/07/03 05:17:34;;;;;;;17.50;10.10;;;20.60;96.20;;;;;;5018093;28;20534;-66
2023/07/03 05:20:01;;;;;;;23.83;9.80;;;20.60;96.40;;;;;;5023163;28;20451;-66
2023/07/03 05:22:26;;;;;;;16.40;10.93;;;20.60;96.30;;;;;;5019208;28;20526;-67
2023/07/03 05:24:52;;;;;;;22.57;10.47;;;20.60;96.70;;;;;;5020852;28;20510;-67
2023/07/03 05:27:18;;;;;;;23.13;11.33;;;20.60;96.70;;;;;;5023819;28;20336;-67
2023/07/03 05:29:43;;;;;;;15.20;10.40;;;20.60;96.80;;;;;;5016813;28;20256;-67
2023/07/03 05:32:10;;;;;;;18.37;11.47;;;20.70;96.70;;;;;;5019564;28;20217;-67
2023/07/03 05:34:38;;;;;;;14.93;9.77;;;20.60;97.60;;;;;;5018555;28;20176;-67
2023/07/03 05:37:05;;;;;;;14.90;9.87;;;20.70;97.10;;;;;;5020965;28;20447;-67
2023/07/03 05:39:30;;;;;;;14.77;9.57;;;20.60;97.10;;;;;;5020446;28;20834;-67
2023/07/03 05:41:56;;;;;;;16.10;10.13;;;20.80;97.30;;;;;;5020980;28;20443;-66
2023/07/03 05:44:21;;;;;;;17.43;10.27;;;20.80;97.30;;;;;;5022451;28;20200;-66
2023/07/03 05:46:47;;;;;;;20.43;10.47;;;20.80;97.20;;;;;;5023657;28;20330;-66
2023/07/03 05:49:12;;;;;;;16.10;9.13;;;20.80;97.10;;;;;;5022463;28;20242;-66
2023/07/03 05:51:38;;;;;;;15.17;10.10;;;20.80;97.30;;;;;;5016833;28;20257;-66
2023/07/03 05:54:04;;;;;;;15.10;9.30;;;20.90;97.20;;;;;;5019107;28;20652;-66
2023/07/03 05:56:30;;;;;;;18.23;9.83;;;20.90;97.10;;;;;;5020361;28;20435;-66
2023/07/03 05:58:55;;;;;;;14.60;9.70;;;20.90;97.30;;;;;;5019351;28;20829;-66
2023/07/03 06:01:21;;;;;;;16.87;9.50;;;20.90;97.10;;;;;;5018195;28;20176;-67
2023/07/03 06:03:47;;;;;;;15.20;9.87;;;20.90;97.10;;;;;;5018470;28;20215;-67
2023/07/03 06:06:14;;;;;;;15.60;10.67;;;20.90;96.50;;;;;;5018238;28;20241;-66
2023/07/03 06:08:40;;;;;;;14.80;8.80;;;20.90;96.70;;;;;;5020301;28;20862;-66
2023/07/03 06:11:05;;;;;;;17.13;10.67;;;20.60;96.40;;;;;;5017283;28;20443;-66
2023/07/03 06:13:31;;;;;;;14.90;8.47;;;20.70;96.80;;;;;;5013913;28;21004;-66
2023/07/03 06:15:56;;;;;;;21.00;9.60;;;20.80;96.80;;;;;;5020715;28;21511;-66
2023/07/03 06:18:22;;;;;;;14.07;9.03;;;20.60;97.10;;;;;;5017812;28;20569;-66
2023/07/03 06:20:48;;;;;;;14.00;10.10;;;20.70;96.70;;;;;;5015985;28;20187;-67
2023/07/03 06:23:14;;;;;;;18.57;9.07;;;20.80;96.30;;;;;;5018519;28;20181;-67
2023/07/03 06:25:40;;;;;;;19.93;8.70;;;20.70;96.30;;;;;;5016394;28;22256;-67
2023/07/03 06:28:06;;;;;;;16.47;8.43;;;20.70;95.90;;;;;;5012785;28;20546;-67
2023/07/03 06:30:31;;;;;;;15.83;9.30;;;20.70;96.00;;;;;;5013264;28;20192;-67
2023/07/03 06:32:57;;;;;;;17.03;9.33;;;20.80;95.90;;;;;;5019343;28;20295;-67
2023/07/03 06:35:22;;;;;;;15.60;9.33;;;20.90;95.50;;;;;;5018982;28;20176;-67
2023/07/03 06:37:48;;;;;;;17.30;8.87;;;20.70;95.60;;;;;;5016303;28;20176;-67
2023/07/03 06:40:15;;;;;;;15.93;9.40;;;20.60;95.90;;;;;;5019522;28;20168;-67
2023/07/03 06:42:42;;;;;;;14.60;8.53;;;20.50;95.80;;;;;;5019021;28;20180;-68
2023/07/03 06:45:07;;;;;;;16.93;9.60;;;20.60;96.00;;;;;;5016273;28;20443;-67
2023/07/03 06:47:33;;;;;;;14.80;8.80;;;20.50;96.10;;;;;;5025184;28;20739;-67
2023/07/03 06:49:59;;;;;;;16.20;9.87;;;20.40;95.80;;;;;;5020749;28;20990;-67
2023/07/03 06:52:24;;;;;;;10.53;7.27;;;20.60;96.30;;;;;;5021372;28;20200;-67
2023/07/03 06:54:50;;;;;;;18.83;8.20;;;20.70;96.20;;;;;;5014575;28;20173;-67
2023/07/03 06:57:15;;;;;;;14.67;7.60;;;20.80;95.60;;;;;;5018722;28;20279;-67
2023/07/03 06:59:41;;;;;;;12.70;8.13;;;20.60;95.00;;;;;;5017279;28;20197;-67
2023/07/03 07:02:07;;;;;;;14.53;8.00;;;20.90;95.20;;;;;;5016797;28;20669;-67
2023/07/03 07:04:32;;;;;;;16.07;8.37;;;21.00;94.60;;;;;;5017061;28;20560;-67
2023/07/03 07:06:58;;;;;;;13.20;7.53;;;21.10;94.50;;;;;;5017796;28;20256;-67
2023/07/03 07:09:24;;;;;;;16.83;8.47;;;21.10;94.20;;;;;;5025224;28;20553;-67
2023/07/03 07:11:49;;;;;;;14.90;9.47;;;21.20;93.80;;;;;;5019942;28;20270;-67
2023/07/03 07:14:15;;;;;;;9.87;7.13;;;21.20;93.80;;;;;;5019673;28;20185;-67
2023/07/03 07:16:42;;;;;;;14.27;7.53;;;21.10;93.60;;;;;;5016933;28;20172;-67
2023/07/03 07:19:09;;;;;;;14.43;7.67;;;21.00;93.70;;;;;;5018271;28;20230;-67
2023/07/03 07:21:41;;;;;;;10.77;6.77;;;21.00;93.70;;;;;;5022357;28;20411;-68
2023/07/03 07:24:19;;;;;;;13.43;6.60;;;21.10;93.60;;;;;;5022887;28;20498;-67
2023/07/03 07:26:46;;;;;;;15.00;8.30;;;21.00;93.30;;;;;;5011596;28;20455;-67
2023/07/03 07:29:12;;;;;;;14.03;7.53;;;21.00;93.80;;;;;;5021210;28;20455;-67
2023/07/03 07:31:38;;;;;;;13.10;6.70;;;20.80;93.50;;;;;;5013762;28;20993;-67
2023/07/03 07:34:05;;;;;;;11.37;7.07;;;20.90;93.60;;;;;;5011273;28;20370;-68
2023/07/03 07:36:31;;;;;;;11.03;6.50;;;20.90;93.50;;;;;;5021960;28;20406;-68
2023/07/03 07:38:59;;;;;;;12.93;6.43;;;20.80;93.50;;;;;;5020181;28;20441;-67
2023/07/03 07:41:24;;;;;;;9.30;5.47;;;20.80;93.40;;;;;;5020308;28;20435;-67
2023/07/03 07:43:51;;;;;;;15.47;6.63;;;20.70;93.30;;;;;;5016322;28;21412;-67
2023/07/03 07:46:17;;;;;;;12.00;6.37;;;20.80;93.40;;;;;;5016219;28;20203;-67
2023/07/03 07:48:43;;;;;;;11.73;6.27;;;21.00;93.60;;;;;;5014418;28;20464;-67
2023/07/03 07:51:10;;;;;;;11.37;5.67;;;21.10;93.60;;;;;;5018248;28;20215;-68
2023/07/03 07:53:36;;;;;;;13.07;6.27;;;21.20;93.60;;;;;;5014916;28;20957;-67
2023/07/03 07:56:03;;;;;;;13.00;6.77;;;21.20;93.60;;;;;;5012812;28;20433;-68
2023/07/03 07:58:28;;;;;;;16.63;7.43;;;21.20;93.30;;;;;;5022093;28;20868;-67
2023/07/03 08:00:57;;;;;;;11.10;7.10;;;21.30;93.40;;;;;;5020820;28;20412;-68
2023/07/03 08:03:23;;;;;;;10.10;6.77;;;21.50;93.50;;;;;;5017789;28;20283;-68
2023/07/03 08:05:49;;;;;;;12.33;6.07;;;21.60;93.00;;;;;;5021508;28;20493;-67
2023/07/03 08:08:15;;;;;;;14.13;6.60;;;21.50;92.80;;;;;;5014846;28;20956;-67
2023/07/03 08:10:41;;;;;;;18.83;6.97;;;21.50;93.10;;;;;;5019237;28;20211;-67
2023/07/03 08:13:07;;;;;;;12.17;6.70;;;21.40;92.90;;;;;;5022762;28;20480;-67
2023/07/03 08:15:32;;;;;;;15.40;7.30;;;21.30;93.00;;;;;;5019725;28;20188;-67
2023/07/03 08:17:58;;;;;;;10.30;6.20;;;21.20;93.30;;;;;;5017368;28;20444;-67
2023/07/03 08:20:24;;;;;;;10.60;5.63;;;21.20;93.30;;;;;;5020593;28;20263;-67
2023/07/03 08:22:49;;;;;;;14.03;6.60;;;21.20;93.00;;;;;;5023595;28;20427;-67
2023/07/03 08:25:15;;;;;;;13.43;6.67;;;21.40;93.30;;;;;;5020649;28;20212;-67
2023/07/03 08:27:46;;;;;;;9.47;5.30;;;21.60;93.10;;;;;;5022733;28;20204;-67
2023/07/03 08:30:12;;;;;;;9.03;5.07;;;21.50;92.60;;;;;;5023449;28;20180;-67
2023/07/03 08:32:37;;;;;;;8.30;5.63;;;21.30;92.50;;;;;;5022821;28;20452;-67
2023/07/03 08:35:03;;;;;;;10.03;5.80;;;21.20;92.60;;;;;;5019344;28;21127;-67
2023/07/03 08:37:30;;;;;;;11.60;6.30;;;21.00;92.40;;;;;;5025380;28;20177;-67
2023/07/03 08:39:56;;;;;;;10.67;5.43;;;21.10;92.50;;;;;;5017659;28;20195;-67
2023/07/03 08:42:27;;;;;;;14.13;5.40;;;21.10;92.80;;;;;;5024281;28;20861;-68
2023/07/03 08:44:53;;;;;;;12.53;5.50;;;21.30;93.00;;;;;;5020662;28;20692;-68
2023/07/03 08:47:28;;;;;;;7.63;5.20;;;21.30;92.70;;;;;;5020701;28;20454;-67
2023/07/03 08:49:55;;;;;;;9.00;5.13;;;21.30;92.30;;;;;;5020045;28;20857;-67
2023/07/03 08:52:36;;;;;;;9.30;4.60;;;21.50;92.30;;;;;;5023975;28;20467;-67
2023/07/03 08:55:04;;;;;;;9.30;5.20;;;21.60;92.20;;;;;;5026539;28;20518;-68
2023/07/03 08:57:31;;;;;;;11.53;5.40;;;21.70;91.70;;;;;;5019271;28;20608;-67
2023/07/03 08:59:57;;;;;;;10.23;6.90;;;21.70;92.00;;;;;;5019368;28;20633;-67
2023/07/03 09:02:36;;;;;;;11.13;4.93;;;21.70;91.60;;;;;;5021181;28;20518;-67
2023/07/03 09:05:14;;;;;;;8.13;4.73;;;21.60;91.20;;;;;;5025460;28;20188;-67
2023/07/03 09:07:45;;;;;;;10.57;5.23;;;21.50;91.20;;;;;;5020453;28;20499;-67
2023/07/03 09:10:31;;;;;;;10.37;5.27;;;21.50;91.60;;;;;;5022578;28;20477;-68
2023/07/03 09:13:21;;;;;;;11.27;5.33;;;21.40;92.10;;;;;;5024556;28;20494;-67
2023/07/03 09:16:09;;;;;;;7.63;4.73;;;21.50;92.00;;;;;;5022260;28;20534;-67
2023/07/03 09:18:41;;;;;;;8.23;5.60;;;21.80;92.30;;;;;;5019497;28;20446;-67
2023/07/03 09:21:07;;;;;;;12.67;5.20;;;22.00;92.00;;;;;;5024569;28;20481;-67
2023/07/03 09:23:54;;;;;;;6.67;4.60;;;22.10;91.70;;;;;;5026166;28;21059;-67
2023/07/03 09:26:38;;;;;;;8.20;5.00;;;22.00;91.00;;;;;;5022454;28;20184;-67
2023/07/03 09:29:05;;;;;;;8.53;4.97;;;21.80;91.10;;;;;;5019357;28;20769;-67
2023/07/03 09:31:31;;;;;;;11.47;5.47;;;21.80;91.30;;;;;;5016742;28;20471;-67
2023/07/03 09:33:57;;;;;;;6.10;4.03;;;21.80;91.70;;;;;;5019205;28;20506;-67
2023/07/03 09:36:22;;;;;;;8.50;4.50;;;21.80;91.60;;;;;;5022561;28;20322;-67
2023/07/03 09:38:48;;;;;;;7.03;4.77;;;22.00;92.00;;;;;;5021722;28;20209;-67
2023/07/03 09:41:30;;;;;;;8.77;4.77;;;22.10;91.00;;;;;;5027057;28;20911;-67
2023/07/03 09:43:56;;;;;;;9.70;4.80;;;22.00;91.40;;;;;;5025365;28;20595;-68
2023/07/03 09:46:22;;;;;;;8.03;4.30;;;22.20;91.00;;;;;;5022246;28;20502;-68
2023/07/03 09:48:48;;;;;;;7.30;4.50;;;22.30;90.60;;;;;;5021586;28;20459;-67
2023/07/03 09:51:20;;;;;;;8.13;4.40;;;22.20;90.30;;;;;;5020671;28;20442;-68
2023/07/03 09:53:46;;;;;;;6.93;4.10;;;22.10;90.10;;;;;;5024270;28;20812;-67
2023/07/03 09:56:19;;;;;;;8.30;4.13;;;22.00;90.40;;;;;;5015248;28;20458;-68
2023/07/03 09:58:47;;;;;;;8.67;4.37;;;21.90;90.70;;;;;;5016723;28;20541;-68
2023/07/03 10:01:24;;;;;;;6.10;4.23;;;21.90;90.80;;;;;;5024580;28;20415;-68
2023/07/03 10:04:14;;;;;;;8.77;5.27;;;21.70;90.90;;;;;;5021607;28;20912;-67
2023/07/03 10:06:50;;;;;;;9.90;4.80;;;21.80;90.90;;;;;;5021740;28;20796;-68
2023/07/03 10:09:25;;;;;;;10.93;4.40;;;21.50;91.50;;;;;;5019297;28;20447;-67
2023/07/03 10:12:24;;;;;;;7.30;4.60;;;21.70;91.50;;;;;;5023361;28;20458;-67
2023/07/03 10:14:59;;;;;;;8.83;4.37;;;21.80;91.20;;;;;;5021173;28;20469;-67
2023/07/03 10:17:33;;;;;;;10.53;4.23;;;21.70;91.70;;;;;;5016737;28;20792;-67
2023/07/03 10:20:03;;;;;;;9.43;4.30;;;21.80;91.50;;;;;;5021044;28;20445;-68
2023/07/03 10:22:30;;;;;;;6.57;3.90;;;22.00;91.90;;;;;;5017050;28;20471;-67
2023/07/03 10:25:02;;;;;;;6.93;4.00;;;22.20;91.80;;;;;;5018855;28;20431;-68
2023/07/03 10:27:29;;;;;;;9.63;4.70;;;22.10;91.40;;;;;;5023824;28;20738;-67
2023/07/03 10:29:55;;;;;;;9.63;4.60;;;22.10;91.60;;;;;;5017489;28;21544;-68
2023/07/03 10:32:25;;;;;;;8.90;4.37;;;22.30;91.80;;;;;;5021031;28;20466;-68
2023/07/03 10:35:01;;;;;;;5.60;3.60;;;22.50;91.40;;;;;;5019771;28;20881;-68
2023/07/03 10:37:31;;;;;;;9.10;4.23;;;22.60;90.90;;;;;;5022918;28;21118;-68
2023/07/03 10:40:00;;;;;;;5.50;4.07;;;22.60;90.80;;;;;;5030728;28;20455;-67
2023/07/03 10:42:35;;;;;;;8.67;4.23;;;22.60;90.90;;;;;;5020767;28;20426;-68
2023/07/03 10:45:08;;;;;;;13.17;5.60;;;22.50;90.60;;;;;;5019537;28;20513;-68
2023/07/03 10:47:40;;;;;;;8.63;4.13;;;22.60;90.90;;;;;;5024098;28;20423;-67
2023/07/03 10:50:08;;;;;;;8.30;3.70;;;22.70;90.70;;;;;;5020527;28;21168;-67
2023/07/03 10:52:39;;;;;;;7.40;4.00;;;22.80;90.30;;;;;;5021757;28;20476;-68
2023/07/03 10:55:22;;;;;;;8.20;3.40;;;22.90;90.40;;;;;;5020583;28;20432;-67
2023/07/03 10:58:21;;;;;;;4.63;3.50;;;22.90;90.30;;;;;;5018842;28;21036;-67
2023/07/03 11:01:02;;;;;;;7.67;4.20;;;22.90;90.00;;;;;;5020799;28;20489;-68
2023/07/03 11:03:45;;;;;;;7.10;3.70;;;22.70;90.50;;;;;;5023737;28;20461;-67
2023/07/03 11:06:27;;;;;;;6.77;3.73;;;22.70;90.40;;;;;;5016701;28;20440;-67
2023/07/03 11:09:08;;;;;;;6.60;3.63;;;22.50;90.00;;;;;;5015439;28;20454;-67
2023/07/03 11:12:08;;;;;;;3.90;3.43;;;22.60;90.00;;;;;;5024692;28;21067;-68
2023/07/03 11:15:13;;;;;;;5.77;3.30;;;22.70;90.00;;;;;;5014485;28;21071;-67
2023/07/03 11:17:38;;;;;;;11.67;3.50;;;22.90;89.60;;;;;;5015312;28;20426;-67
2023/07/03 11:20:19;;;;;;;4.00;3.00;;;22.90;88.20;;;;;;5015198;28;20442;-67
2023/07/03 11:23:10;;;;;;;4.03;2.83;;;23.00;88.00;;;;;;5015954;28;20189;-68
2023/07/03 11:25:47;;;;;;;2.93;2.53;;;23.00;87.00;;;;;;5021242;28;20446;-68
2023/07/03 11:28:33;;;;;;;6.93;2.53;;;23.10;87.10;;;;;;5012174;28;20451;-67
2023/07/03 11:31:01;;;;;;;6.60;3.03;;;23.20;87.00;;;;;;5021699;28;20466;-67
2023/07/03 11:33:29;;;;;;;4.97;2.70;;;23.40;87.40;;;;;;5027066;28;20635;-67
2023/07/03 11:35:57;;;;;;;3.70;2.80;;;23.50;85.20;;;;;;5018483;28;20522;-67
2023/07/03 11:38:24;;;;;;;3.10;2.80;;;23.50;86.40;;;;;;5020112;28;20853;-67
2023/07/03 11:40:55;;;;;;;5.30;2.70;;;23.70;86.90;;;;;;5013652;28;20435;-67
2023/07/03 11:43:32;;;;;;;3.40;3.07;;;23.70;85.10;;;;;;5018978;28;20421;-67
2023/07/03 11:45:57;;;;;;;3.40;2.97;;;23.70;85.60;;;;;;5016415;28;20466;-67
2023/07/03 11:48:26;;;;;;;4.23;2.90;;;23.60;85.80;;;;;;5019508;28;20561;-67
2023/07/03 11:51:00;;;;;;;5.13;2.53;;;23.60;85.80;;;;;;5020070;28;20189;-67
2023/07/03 11:53:35;;;;;;;4.00;2.70;;;23.60;85.50;;;;;;5015803;28;20507;-67
2023/07/03 11:56:04;;;;;;;4.33;3.13;;;23.60;84.90;;;;;;5023732;28;20888;-67
2023/07/03 11:58:33;;;;;;;3.57;2.90;;;23.70;85.00;;;;;;5025180;28;20431;-72
2023/07/03 12:01:20;;;;;;;3.63;2.80;;;23.70;85.60;;;;;;5026534;28;20426;-68
2023/07/03 12:04:02;;;;;;;6.43;2.63;;;23.70;85.80;;;;;;5022717;28;20602;-68
2023/07/03 12:06:39;;;;;;;4.30;2.97;;;23.70;85.10;;;;;;5022497;28;20447;-68
2023/07/03 12:09:23;;;;;;;4.50;3.17;;;23.80;85.80;;;;;;5026131;28;20447;-68
2023/07/03 12:12:02;;;;;;;3.23;2.90;;;23.90;85.60;;;;;;5019878;28;20455;-68
2023/07/03 12:14:41;;;;;;;4.87;2.87;;;23.60;85.60;;;;;;5023925;28;20434;-67
2023/07/03 12:17:15;;;;;;;4.07;2.73;;;23.70;86.10;;;;;;5026126;28;21179;-67
2023/07/03 12:19:41;;;;;;;3.90;2.67;;;23.80;85.30;;;;;;5024363;28;21063;-67
2023/07/03 12:22:06;;;;;;;2.40;2.20;;;23.90;85.40;;;;;;5022211;28;20434;-68
2023/07/03 12:24:32;;;;;;;4.70;2.80;;;23.90;84.60;;;;;;5027497;28;20196;-68
2023/07/03 12:27:01;;;;;;;2.90;2.60;;;24.00;85.20;;;;;;5024228;28;20207;-67
2023/07/03 12:29:29;;;;;;;3.57;2.90;;;24.20;85.20;;;;;;5016024;28;20667;-68
2023/07/03 12:32:05;;;;;;;5.37;2.87;;;24.30;85.40;;;;;;5020042;28;20509;-67
2023/07/03 12:34:32;;;;;;;6.40;2.43;;;24.30;84.40;;;;;;5018005;28;20435;-68
2023/07/03 12:37:00;;;;;;;3.10;2.80;;;24.30;84.30;;;;;;5023789;28;20855;-68
2023/07/03 12:39:26;;;;;;;4.87;2.63;;;24.20;84.40;;;;;;5021661;28;20512;-68
2023/07/03 12:41:51;;;;;;;4.00;2.70;;;24.10;85.60;;;;;;5022964;28;20438;-68
2023/07/03 12:44:21;;;;;;;5.83;2.80;;;24.10;84.70;;;;;;5026520;28;20168;-68
2023/07/03 12:46:46;;;;;;;5.03;2.70;;;24.00;85.20;;;;;;5024629;28;20181;-68